TimeCST,TemperatureF,Dew PointF,Humidity,Sea Level PressureIn,VisibilityMPH,Wind Direction,Wind SpeedMPH,Gust SpeedMPH,PrecipitationIn,Events,Conditions,WindDirDegrees,DateUTC
1:53 AM,62.1,46.0,56,29.86,10.0,NW,24.2,33.4,N/A,,Scattered Clouds,320,2013-03-05 07:53:00
2:04 AM,60.8,44.6,55,29.88,10.0,NNW,27.6,36.8,N/A,,Partly Cloudy,330,2013-03-05 08:04:00
2:53 AM,54.0,41.0,62,29.94,10.0,North,29.9,39.1,N/A,,Clear,350,2013-03-05 08:53:00
3:53 AM,50.0,37.9,63,30.03,9.0,NNW,25.3,34.5,N/A,,Clear,340,2013-03-05 09:53:00
4:53 AM,50.0,35.1,57,30.09,10.0,North,21.9,36.8,N/A,,Clear,350,2013-03-05 10:53:00
5:53 AM,48.9,33.1,54,30.14,10.0,North,16.1,31.1,N/A,,Clear,360,2013-03-05 11:53:00
7:53 AM,48.9,33.1,54,30.23,10.0,NNW,15.0,20.7,N/A,,Clear,340,2013-03-05 13:53:00
8:53 AM,50.0,28.0,43,30.27,10.0,North,17.3,29.9,N/A,,Clear,360,2013-03-05 14:53:00
9:53 AM,52.0,27.0,38,30.28,10.0,North,19.6,28.8,N/A,,Clear,10,2013-03-05 15:53:00
10:53 AM,54.0,26.1,34,30.30,10.0,NNW,21.9,28.8,N/A,,Clear,340,2013-03-05 16:53:00
11:53 AM,57.0,21.9,26,30.31,10.0,North,20.7,31.1,N/A,,Clear,360,2013-03-05 17:53:00
12:53 PM,57.9,21.9,25,30.30,10.0,North,13.8,24.2,N/A,,Clear,350,2013-03-05 18:53:00
1:53 PM,59.0,21.0,23,30.28,10.0,North,18.4,29.9,N/A,,Clear,350,2013-03-05 19:53:00
2:53 PM,59.0,19.9,22,30.28,10.0,NNW,19.6,28.8,N/A,,Clear,340,2013-03-05 20:53:00
3:53 PM,59.0,19.0,21,30.28,10.0,NNW,15.0,26.5,N/A,,Clear,340,2013-03-05 21:53:00
4:53 PM,57.0,16.0,20,30.29,10.0,North,15.0,25.3,N/A,,Clear,350,2013-03-05 22:53:00
5:53 PM,55.0,18.0,23,30.30,10.0,NNW,13.8,20.7,N/A,,Clear,330,2013-03-05 23:53:00
6:53 PM,51.1,19.0,28,30.33,10.0,NNW,6.9,-,N/A,,Clear,330,2013-03-06 00:53:00
7:53 PM,48.9,19.0,31,30.34,10.0,NNW,8.1,-,N/A,,Clear,340,2013-03-06 01:53:00
8:53 PM,46.0,19.0,34,30.35,10.0,North,6.9,-,N/A,,Clear,350,2013-03-06 02:53:00
9:53 PM,43.0,19.9,40,30.36,10.0,NNW,4.6,-,N/A,,Clear,340,2013-03-06 03:53:00
10:53 PM,41.0,21.0,45,30.37,10.0,North,8.1,-,N/A,,Clear,350,2013-03-06 04:53:00
11:53 PM,41.0,19.9,43,30.36,10.0,North,8.1,-,N/A,,Clear,350,2013-03-06 05:53:00